createdAt,value
2023-07-10T00:00:48.107Z,1011.74
2023-07-10T00:01:48.078Z,1011.75
2023-07-10T00:02:48.082Z,1011.73
2023-07-10T00:03:48.093Z,1011.70
2023-07-10T00:04:48.040Z,1011.67
2023-07-10T00:05:48.042Z,1011.66
2023-07-10T00:06:48.022Z,1011.67
2023-07-10T00:07:48.015Z,1011.69
2023-07-10T00:08:47.989Z,1011.68
2023-07-10T00:09:47.990Z,1011.68
2023-07-10T00:10:47.960Z,1011.68
2023-07-10T00:11:47.997Z,1011.66
2023-07-10T00:12:47.984Z,1011.64
2023-07-10T00:13:47.975Z,1011.60
2023-07-10T00:14:47.924Z,1011.59
2023-07-10T00:15:47.932Z,1011.58
2023-07-10T00:16:47.931Z,1011.60
2023-07-10T00:17:47.974Z,1011.63
2023-07-10T00:18:47.878Z,1011.65
2023-07-10T00:19:47.880Z,1011.65
2023-07-10T00:20:47.843Z,1011.66
2023-07-10T00:21:47.867Z,1011.65
2023-07-10T00:22:47.864Z,1011.66
2023-07-10T00:23:47.851Z,1011.65
2023-07-10T00:24:47.831Z,1011.62
2023-07-10T00:25:47.809Z,1011.62
2023-07-10T00:26:47.801Z,1011.61
2023-07-10T00:27:47.783Z,1011.61
2023-07-10T00:28:47.782Z,1011.60
2023-07-10T00:29:47.777Z,1011.61
2023-07-10T00:30:47.819Z,1011.61
2023-07-10T00:31:47.736Z,1011.62
2023-07-10T00:32:47.787Z,1011.62
2023-07-10T00:33:47.712Z,1011.61
2023-07-10T00:34:47.725Z,1011.61
2023-07-10T00:35:47.730Z,1011.60
2023-07-10T00:36:47.713Z,1011.58
2023-07-10T00:37:47.670Z,1011.59
2023-07-10T00:38:47.698Z,1011.58
2023-07-10T00:39:47.658Z,1011.59
2023-07-10T00:40:47.658Z,1011.59
2023-07-10T00:41:47.642Z,1011.60
2023-07-10T00:42:47.629Z,1011.60
2023-07-10T00:43:47.610Z,1011.61
2023-07-10T00:44:47.624Z,1011.63
2023-07-10T00:45:47.573Z,1011.65
2023-07-10T00:46:47.610Z,1011.64
2023-07-10T00:47:47.607Z,1011.65
2023-07-10T00:48:47.566Z,1011.67
2023-07-10T00:49:47.541Z,1011.67
2023-07-10T00:50:47.595Z,1011.66
2023-07-10T00:51:47.515Z,1011.64
2023-07-10T00:52:47.573Z,1011.63
2023-07-10T00:53:47.538Z,1011.64
2023-07-10T00:54:47.506Z,1011.64
2023-07-10T00:55:47.477Z,1011.64
2023-07-10T00:56:47.484Z,1011.63
2023-07-10T00:57:47.485Z,1011.63
2023-07-10T00:58:47.462Z,1011.62
2023-07-10T00:59:47.457Z,1011.63
2023-07-10T01:00:47.504Z,1011.65
2023-07-10T01:01:47.433Z,1011.68
2023-07-10T01:02:47.523Z,1011.70
2023-07-10T01:03:47.381Z,1011.71
2023-07-10T01:04:47.398Z,1011.71
2023-07-10T01:05:47.379Z,1011.71
2023-07-10T01:06:47.372Z,1011.70
2023-07-10T01:07:47.346Z,1011.69
2023-07-10T01:08:47.384Z,1011.71
2023-07-10T01:09:47.309Z,1011.72
2023-07-10T01:10:47.328Z,1011.71
2023-07-10T01:11:47.333Z,1011.70
2023-07-10T01:12:47.325Z,1011.73
2023-07-10T01:13:47.317Z,1011.71
2023-07-10T01:14:47.289Z,1011.72
2023-07-10T01:15:47.261Z,1011.72
2023-07-10T01:16:47.296Z,1011.72
2023-07-10T01:17:47.272Z,1011.71
2023-07-10T01:18:47.259Z,1011.72
2023-07-10T01:19:47.224Z,1011.74
2023-07-10T01:20:47.221Z,1011.76
2023-07-10T01:21:47.195Z,1011.75
2023-07-10T01:22:47.202Z,1011.76
2023-07-10T01:23:47.197Z,1011.76
2023-07-10T01:24:47.204Z,1011.76
2023-07-10T01:25:47.138Z,1011.78
2023-07-10T01:26:47.153Z,1011.83
2023-07-10T01:27:47.122Z,1011.85
2023-07-10T01:28:47.134Z,1011.84
2023-07-10T01:29:47.125Z,1011.83
2023-07-10T01:30:47.145Z,1011.84
2023-07-10T01:31:47.070Z,1011.85
2023-07-10T01:32:47.193Z,1011.85
2023-07-10T01:33:47.052Z,1011.84
2023-07-10T01:34:47.074Z,1011.86
2023-07-10T01:35:47.066Z,1011.88
2023-07-10T01:36:47.049Z,1011.90
2023-07-10T01:37:47.017Z,1011.92
2023-07-10T01:38:47.032Z,1011.93
2023-07-10T01:39:47.001Z,1011.91
2023-07-10T01:40:47.005Z,1011.89
2023-07-10T01:41:47.004Z,1011.89
2023-07-10T01:42:46.983Z,1011.89
2023-07-10T01:43:46.948Z,1011.87
2023-07-10T01:44:46.956Z,1011.85
2023-07-10T01:45:46.942Z,1011.84
2023-07-10T01:46:46.929Z,1011.82
2023-07-10T01:47:46.986Z,1011.83
2023-07-10T01:48:47.028Z,1011.84
2023-07-10T01:49:46.894Z,1011.86
2023-07-10T01:50:46.900Z,1011.88
2023-07-10T01:51:46.864Z,1011.88
2023-07-10T01:52:46.877Z,1011.86
2023-07-10T01:53:46.863Z,1011.84
2023-07-10T01:54:46.843Z,1011.84
2023-07-10T01:55:46.834Z,1011.84
2023-07-10T01:56:46.828Z,1011.85
2023-07-10T01:57:46.798Z,1011.85
2023-07-10T01:58:46.805Z,1011.87
2023-07-10T01:59:46.800Z,1011.90
2023-07-10T02:00:46.780Z,1011.90
2023-07-10T02:01:46.795Z,1011.90
2023-07-10T02:02:46.848Z,1011.90
2023-07-10T02:03:46.818Z,1011.88
2023-07-10T02:04:46.767Z,1011.87
2023-07-10T02:05:46.712Z,1011.85
2023-07-10T02:06:46.725Z,1011.86
2023-07-10T02:07:46.681Z,1011.85
2023-07-10T02:08:46.702Z,1011.85
2023-07-10T02:09:46.666Z,1011.88
2023-07-10T02:10:46.692Z,1011.91
2023-07-10T02:11:46.660Z,1011.92
2023-07-10T02:12:46.663Z,1011.93
2023-07-10T02:13:46.640Z,1011.93
2023-07-10T02:14:46.854Z,1011.96
2023-07-10T02:15:46.601Z,1011.99
2023-07-10T02:16:46.649Z,1012.01
2023-07-10T02:17:46.651Z,1012.01
2023-07-10T02:18:46.585Z,1012.01
2023-07-10T02:19:46.544Z,1012.02
2023-07-10T02:20:46.570Z,1012.04
2023-07-10T02:21:46.531Z,1012.06
2023-07-10T02:22:46.544Z,1012.06
2023-07-10T02:23:46.520Z,1012.06
2023-07-10T02:24:46.522Z,1012.06
2023-07-10T02:25:46.494Z,1012.05
2023-07-10T02:26:46.509Z,1012.08
2023-07-10T02:27:46.475Z,1012.09
2023-07-10T02:28:46.468Z,1012.12
2023-07-10T02:29:46.466Z,1012.12
2023-07-10T02:30:46.452Z,1012.13
2023-07-10T02:31:46.490Z,1012.14
2023-07-10T02:32:46.504Z,1012.16
2023-07-10T02:33:46.413Z,1012.17
2023-07-10T02:34:46.416Z,1012.17
2023-07-10T02:35:46.407Z,1012.18
2023-07-10T02:36:46.432Z,1012.18
2023-07-10T02:37:46.357Z,1012.20
2023-07-10T02:38:46.378Z,1012.22
2023-07-10T02:39:46.334Z,1012.25
2023-07-10T02:40:46.346Z,1012.26
2023-07-10T02:41:46.329Z,1012.27
2023-07-10T02:42:46.336Z,1012.27
2023-07-10T02:43:46.291Z,1012.28
2023-07-10T02:44:46.308Z,1012.30
2023-07-10T02:45:46.310Z,1012.27
2023-07-10T02:46:46.286Z,1012.27
2023-07-10T02:47:46.309Z,1012.25
2023-07-10T02:48:46.286Z,1012.26
2023-07-10T02:49:46.235Z,1012.31
2023-07-10T02:50:46.251Z,1012.24
2023-07-10T02:51:46.224Z,1012.26
2023-07-10T02:52:46.229Z,1012.26
2023-07-10T02:53:46.223Z,1012.24
2023-07-10T02:54:46.223Z,1012.25
2023-07-10T02:55:46.180Z,1012.24
2023-07-10T02:56:46.174Z,1012.22
2023-07-10T02:57:46.193Z,1012.22
2023-07-10T02:58:46.161Z,1012.23
2023-07-10T02:59:46.142Z,1012.24
2023-07-10T03:00:46.133Z,1012.26
2023-07-10T03:01:46.099Z,1012.26
2023-07-10T03:02:46.146Z,1012.24
2023-07-10T03:03:46.074Z,1012.23
2023-07-10T03:04:46.142Z,1012.23
2023-07-10T03:05:46.090Z,1012.23
2023-07-10T03:06:46.064Z,1012.22
2023-07-10T03:07:46.046Z,1012.20
2023-07-10T03:08:46.047Z,1012.19
2023-07-10T03:09:46.042Z,1012.20
2023-07-10T03:10:46.037Z,1012.21
2023-07-10T03:11:46.028Z,1012.22
2023-07-10T03:12:46.000Z,1012.21
2023-07-10T03:13:46.015Z,1012.20
2023-07-10T03:14:45.981Z,1012.21
2023-07-10T03:15:45.981Z,1012.21
2023-07-10T03:16:45.968Z,1012.23
2023-07-10T03:17:45.968Z,1012.25
2023-07-10T03:18:45.940Z,1012.28
2023-07-10T03:19:45.921Z,1012.30
2023-07-10T03:20:45.951Z,1012.30
2023-07-10T03:21:45.912Z,1012.30
2023-07-10T03:22:45.896Z,1012.30
2023-07-10T03:23:45.871Z,1012.31
2023-07-10T03:24:45.872Z,1012.31
2023-07-10T03:25:45.830Z,1012.31
2023-07-10T03:26:45.846Z,1012.31
2023-07-10T03:27:45.828Z,1012.29
2023-07-10T03:28:45.824Z,1012.30
2023-07-10T03:29:45.811Z,1012.31
2023-07-10T03:30:45.819Z,1012.33
2023-07-10T03:31:45.815Z,1012.32
2023-07-10T03:32:45.835Z,1012.35
2023-07-10T03:33:45.763Z,1012.37
2023-07-10T03:34:45.779Z,1012.38
2023-07-10T03:35:45.769Z,1012.38
2023-07-10T03:36:45.765Z,1012.38
2023-07-10T03:37:45.715Z,1012.37
2023-07-10T03:38:45.727Z,1012.37
2023-07-10T03:39:45.685Z,1012.35
2023-07-10T03:40:45.704Z,1012.35
2023-07-10T03:41:45.693Z,1012.34
2023-07-10T03:42:45.678Z,1012.33
2023-07-10T03:43:45.644Z,1012.31
2023-07-10T03:44:45.655Z,1012.31
2023-07-10T03:45:45.664Z,1012.33
2023-07-10T03:46:45.650Z,1012.33
2023-07-10T03:47:45.673Z,1012.33
2023-07-10T03:48:45.614Z,1012.33
2023-07-10T03:49:45.575Z,1012.33
2023-07-10T03:50:45.586Z,1012.31
2023-07-10T03:51:45.567Z,1012.32
2023-07-10T03:52:45.576Z,1012.32
2023-07-10T03:53:45.567Z,1012.32
2023-07-10T03:54:45.545Z,1012.32
2023-07-10T03:55:45.511Z,1012.33
2023-07-10T03:56:45.529Z,1012.34
2023-07-10T03:57:45.484Z,1012.34
2023-07-10T03:58:45.514Z,1012.35
2023-07-10T03:59:45.498Z,1012.35
2023-07-10T04:00:45.561Z,1012.37
2023-07-10T04:01:45.450Z,1012.40
2023-07-10T04:02:45.521Z,1012.42
2023-07-10T04:03:45.535Z,1012.43
2023-07-10T04:04:45.464Z,1012.44
2023-07-10T04:05:45.412Z,1012.46
2023-07-10T04:06:45.429Z,1012.46
2023-07-10T04:07:45.377Z,1012.47
2023-07-10T04:08:45.482Z,1012.48
2023-07-10T04:09:45.353Z,1012.49
2023-07-10T04:10:45.375Z,1012.51
2023-07-10T04:11:45.350Z,1012.51
2023-07-10T04:12:45.347Z,1012.51
2023-07-10T04:13:45.341Z,1012.50
2023-07-10T04:14:45.329Z,1012.48
2023-07-10T04:15:45.318Z,1012.48
2023-07-10T04:16:45.367Z,1012.45
2023-07-10T04:17:45.313Z,1012.44
2023-07-10T04:18:45.319Z,1012.44
2023-07-10T04:19:45.242Z,1012.46
2023-07-10T04:20:45.265Z,1012.48
2023-07-10T04:21:45.255Z,1012.50
2023-07-10T04:22:45.494Z,1012.49
2023-07-10T04:23:45.237Z,1012.49
2023-07-10T04:24:45.254Z,1012.47
2023-07-10T04:25:45.222Z,1012.46
2023-07-10T04:26:45.201Z,1012.46
2023-07-10T04:27:45.164Z,1012.45
2023-07-10T04:28:45.174Z,1012.44
2023-07-10T04:29:45.163Z,1012.38
2023-07-10T04:30:45.191Z,1012.38
2023-07-10T04:31:45.117Z,1012.39
2023-07-10T04:32:45.173Z,1012.38
2023-07-10T04:33:45.130Z,1012.39
2023-07-10T04:34:45.115Z,1012.38
2023-07-10T04:35:45.096Z,1012.38
2023-07-10T04:36:45.096Z,1012.42
2023-07-10T04:37:45.083Z,1012.42
2023-07-10T04:38:45.083Z,1012.43
2023-07-10T04:39:46.375Z,1012.47
2023-07-10T04:40:45.015Z,1012.51
2023-07-10T04:41:45.055Z,1012.55
2023-07-10T04:42:45.005Z,1012.59
2023-07-10T04:43:45.019Z,1012.58
2023-07-10T04:44:44.983Z,1012.57
2023-07-10T04:45:45.010Z,1012.54
2023-07-10T04:46:45.023Z,1012.53
2023-07-10T04:47:45.144Z,1012.57
2023-07-10T04:48:45.033Z,1012.58
2023-07-10T04:49:44.944Z,1012.61
2023-07-10T04:50:44.912Z,1012.63
2023-07-10T04:51:44.956Z,1012.63
2023-07-10T04:52:44.892Z,1012.60
2023-07-10T04:53:44.959Z,1012.61
2023-07-10T04:54:44.871Z,1012.61
2023-07-10T04:55:44.885Z,1012.61
2023-07-10T04:56:44.850Z,1012.61
2023-07-10T04:57:44.858Z,1012.64
2023-07-10T04:58:44.841Z,1012.67
2023-07-10T04:59:44.867Z,1012.71
2023-07-10T05:00:44.817Z,1012.72
2023-07-10T05:01:44.825Z,1012.74
2023-07-10T05:02:44.864Z,1012.77
2023-07-10T05:03:44.814Z,1012.81
2023-07-10T05:04:44.780Z,1012.84
2023-07-10T05:05:44.794Z,1012.85
2023-07-10T05:06:44.744Z,1012.84
2023-07-10T05:07:44.764Z,1012.81
2023-07-10T05:08:44.710Z,1012.81
2023-07-10T05:09:44.735Z,1012.82
2023-07-10T05:10:44.693Z,1012.83
2023-07-10T05:11:44.742Z,1012.85
2023-07-10T05:12:44.670Z,1012.88
2023-07-10T05:13:44.713Z,1012.89
2023-07-10T05:14:44.651Z,1012.93
2023-07-10T05:15:44.691Z,1012.93
2023-07-10T05:16:44.710Z,1012.94
2023-07-10T05:17:44.683Z,1012.96
2023-07-10T05:18:44.635Z,1012.97
2023-07-10T05:19:44.687Z,1012.99
2023-07-10T05:20:44.608Z,1012.97
2023-07-10T05:21:44.609Z,1012.99
2023-07-10T05:22:44.579Z,1013.00
2023-07-10T05:23:44.593Z,1012.99
2023-07-10T05:24:44.544Z,1013.00
2023-07-10T05:25:44.555Z,1013.00
2023-07-10T05:26:44.530Z,1013.02
2023-07-10T05:27:44.535Z,1013.01
2023-07-10T05:28:44.500Z,1013.02
2023-07-10T05:29:44.535Z,1013.02
2023-07-10T05:30:44.493Z,1013.04
2023-07-10T05:31:44.530Z,1013.06
2023-07-10T05:32:44.470Z,1013.08
2023-07-10T05:33:44.473Z,1013.09
2023-07-10T05:34:44.434Z,1013.11
2023-07-10T05:35:44.486Z,1013.13
2023-07-10T05:36:44.421Z,1013.14
2023-07-10T05:37:44.422Z,1013.13
2023-07-10T05:38:44.389Z,1013.14
2023-07-10T05:39:44.402Z,1013.14
2023-07-10T05:40:44.398Z,1013.16
2023-07-10T05:41:44.453Z,1013.16
2023-07-10T05:42:44.346Z,1013.17
2023-07-10T05:43:44.369Z,1013.18
2023-07-10T05:44:44.325Z,1013.20
2023-07-10T05:45:44.426Z,1013.21
2023-07-10T05:46:44.354Z,1013.22
2023-07-10T05:47:44.360Z,1013.22
2023-07-10T05:48:44.291Z,1013.24
2023-07-10T05:49:44.295Z,1013.26
2023-07-10T05:50:44.266Z,1013.29
2023-07-10T05:51:44.269Z,1013.32
2023-07-10T05:52:44.266Z,1013.34
2023-07-10T05:53:44.290Z,1013.34
2023-07-10T05:54:44.225Z,1013.35
2023-07-10T05:55:44.228Z,1013.35
2023-07-10T05:56:44.195Z,1013.34
2023-07-10T05:57:44.215Z,1013.33
2023-07-10T05:58:44.194Z,1013.32
2023-07-10T05:59:44.221Z,1013.32
2023-07-10T06:00:44.166Z,1013.33
2023-07-10T06:01:44.181Z,1013.36
2023-07-10T06:02:44.165Z,1013.37
2023-07-10T06:03:44.157Z,1013.38
2023-07-10T06:04:44.110Z,1013.41
2023-07-10T06:05:44.157Z,1013.42
2023-07-10T06:06:44.086Z,1013.43
2023-07-10T06:07:44.100Z,1013.44
2023-07-10T06:08:44.062Z,1013.46
2023-07-10T06:09:44.085Z,1013.46
2023-07-10T06:10:44.039Z,1013.48
2023-07-10T06:11:44.088Z,1013.46
2023-07-10T06:12:44.030Z,1013.47
2023-07-10T06:13:44.051Z,1013.46
2023-07-10T06:14:44.002Z,1013.47
2023-07-10T06:15:44.042Z,1013.48
2023-07-10T06:16:43.986Z,1013.49
2023-07-10T06:17:44.075Z,1013.51
2023-07-10T06:18:43.969Z,1013.52
2023-07-10T06:19:43.968Z,1013.53
2023-07-10T06:20:43.948Z,1013.54
2023-07-10T06:21:43.941Z,1013.54
2023-07-10T06:22:43.931Z,1013.56
2023-07-10T06:23:43.942Z,1013.57
2023-07-10T06:24:43.897Z,1013.58
2023-07-10T06:25:43.900Z,1013.58
2023-07-10T06:26:43.865Z,1013.58
2023-07-10T06:27:43.901Z,1013.58
2023-07-10T06:28:43.841Z,1013.58
2023-07-10T06:29:43.888Z,1013.58
2023-07-10T06:30:43.869Z,1013.61
2023-07-10T06:31:43.893Z,1013.62
2023-07-10T06:32:43.816Z,1013.64
2023-07-10T06:33:43.827Z,1013.67
2023-07-10T06:34:43.801Z,1013.69
2023-07-10T06:35:43.819Z,1013.71
2023-07-10T06:36:43.768Z,1013.71
2023-07-10T06:37:43.795Z,1013.71
2023-07-10T06:38:43.741Z,1013.72
2023-07-10T06:39:43.760Z,1013.73
2023-07-10T06:40:43.719Z,1013.74
2023-07-10T06:41:43.755Z,1013.76
2023-07-10T06:42:43.695Z,1013.78
2023-07-10T06:43:43.705Z,1013.78
2023-07-10T06:44:43.695Z,1013.80
2023-07-10T06:45:43.723Z,1013.81
2023-07-10T06:46:43.957Z,1013.83
2023-07-10T06:47:43.797Z,1013.86
2023-07-10T06:48:43.637Z,1013.88
2023-07-10T06:49:43.648Z,1013.90
2023-07-10T06:50:43.629Z,1013.90
2023-07-10T06:51:43.634Z,1013.90
2023-07-10T06:52:43.596Z,1013.88
2023-07-10T06:53:43.640Z,1013.87
2023-07-10T06:54:43.565Z,1013.86
2023-07-10T06:55:43.584Z,1013.85
2023-07-10T06:56:43.545Z,1013.86
2023-07-10T06:57:43.572Z,1013.84
2023-07-10T06:58:43.532Z,1013.83
2023-07-10T06:59:43.568Z,1013.84
2023-07-10T07:00:43.553Z,1013.82
2023-07-10T07:01:43.577Z,1013.82
2023-07-10T07:02:43.517Z,1013.82
2023-07-10T07:03:43.490Z,1013.81
2023-07-10T07:04:43.467Z,1013.78
2023-07-10T07:05:43.505Z,1013.78
2023-07-10T07:06:43.449Z,1013.77
2023-07-10T07:07:43.470Z,1013.77
2023-07-10T07:08:43.414Z,1013.77
2023-07-10T07:09:43.448Z,1013.76
2023-07-10T07:10:43.415Z,1013.74
2023-07-10T07:11:43.455Z,1013.73
2023-07-10T07:12:43.379Z,1013.71
2023-07-10T07:13:43.549Z,1013.70
2023-07-10T07:14:43.358Z,1013.68
2023-07-10T07:15:43.379Z,1013.67
2023-07-10T07:16:43.447Z,1013.67
2023-07-10T07:17:43.414Z,1013.70
2023-07-10T07:18:43.354Z,1013.73
2023-07-10T07:19:43.346Z,1013.77
2023-07-10T07:20:43.320Z,1013.78
2023-07-10T07:21:43.354Z,1013.81
2023-07-10T07:22:43.316Z,1013.82
2023-07-10T07:23:43.357Z,1013.83
2023-07-10T07:24:43.270Z,1013.86
2023-07-10T07:25:43.260Z,1013.89
2023-07-10T07:26:43.262Z,1013.90
2023-07-10T07:27:43.263Z,1013.90
2023-07-10T07:28:43.233Z,1013.92
2023-07-10T07:29:43.256Z,1013.93
2023-07-10T07:30:43.223Z,1013.96
2023-07-10T07:31:43.232Z,1013.97
2023-07-10T07:32:43.234Z,1014.00
2023-07-10T07:33:43.186Z,1014.00
2023-07-10T07:34:43.137Z,1013.97
2023-07-10T07:35:43.184Z,1013.95
2023-07-10T07:36:43.172Z,1013.94
2023-07-10T07:37:43.138Z,1013.95
2023-07-10T07:38:43.144Z,1013.97
2023-07-10T07:39:43.114Z,1014.00
2023-07-10T07:40:43.092Z,1014.03
2023-07-10T07:41:43.124Z,1014.04
2023-07-10T07:42:43.053Z,1014.04
2023-07-10T07:43:43.101Z,1014.02
2023-07-10T07:44:43.069Z,1014.01
2023-07-10T07:45:43.053Z,1014.00
2023-07-10T07:46:43.056Z,1013.99
2023-07-10T07:47:43.216Z,1013.98
2023-07-10T07:48:42.987Z,1013.97
2023-07-10T07:49:43.026Z,1013.97
2023-07-10T07:50:42.968Z,1013.96
2023-07-10T07:51:43.006Z,1013.98
2023-07-10T07:52:42.967Z,1013.97
2023-07-10T07:53:42.974Z,1013.95
2023-07-10T07:54:42.932Z,1013.97
2023-07-10T07:55:42.929Z,1013.95
2023-07-10T07:56:42.897Z,1013.95
2023-07-10T07:57:42.938Z,1013.95
2023-07-10T07:58:42.873Z,1013.97
2023-07-10T07:59:42.924Z,1013.97
2023-07-10T08:00:42.855Z,1013.99
2023-07-10T08:01:42.871Z,1013.98
2023-07-10T08:02:42.864Z,1013.96
2023-07-10T08:03:42.993Z,1013.94
2023-07-10T08:04:42.934Z,1013.91
2023-07-10T08:05:42.889Z,1013.92
2023-07-10T08:06:44.510Z,1013.92
2023-07-10T08:07:42.852Z,1013.91
2023-07-10T08:08:42.782Z,1013.93
2023-07-10T08:09:42.779Z,1013.94
2023-07-10T08:10:42.747Z,1013.95
2023-07-10T08:11:42.787Z,1013.97
2023-07-10T08:12:42.768Z,1013.98
2023-07-10T08:13:42.770Z,1013.99
2023-07-10T08:14:42.710Z,1014.02
2023-07-10T08:15:42.748Z,1014.02
2023-07-10T08:16:42.697Z,1014.04
2023-07-10T08:17:42.765Z,1014.10
2023-07-10T08:18:42.683Z,1014.16
2023-07-10T08:19:42.689Z,1014.15
2023-07-10T08:20:42.647Z,1014.16
2023-07-10T08:21:42.643Z,1014.18
2023-07-10T08:22:42.643Z,1014.20
2023-07-10T08:23:42.663Z,1014.22
2023-07-10T08:24:42.594Z,1014.22
2023-07-10T08:25:42.806Z,1014.20
2023-07-10T08:26:42.599Z,1014.21
2023-07-10T08:27:42.589Z,1014.20
2023-07-10T08:28:42.556Z,1014.21
2023-07-10T08:29:42.586Z,1014.19
2023-07-10T08:30:42.550Z,1014.19
2023-07-10T08:31:42.556Z,1014.18
2023-07-10T08:32:42.529Z,1014.19
2023-07-10T08:33:42.524Z,1014.18
2023-07-10T08:34:42.483Z,1014.19
2023-07-10T08:35:42.521Z,1014.15
2023-07-10T08:36:42.473Z,1014.15
2023-07-10T08:37:42.493Z,1014.16
2023-07-10T08:38:42.444Z,1014.17
2023-07-10T08:39:42.458Z,1014.16
2023-07-10T08:40:42.427Z,1014.18
2023-07-10T08:41:42.454Z,1014.16
2023-07-10T08:42:42.423Z,1014.17
2023-07-10T08:43:42.442Z,1014.19
2023-07-10T08:44:42.381Z,1014.19
2023-07-10T08:45:42.426Z,1014.18
2023-07-10T08:46:42.429Z,1014.18
2023-07-10T08:47:42.503Z,1014.16
2023-07-10T08:48:42.368Z,1014.15
2023-07-10T08:49:42.441Z,1014.13
2023-07-10T08:50:42.328Z,1014.11
2023-07-10T08:51:42.334Z,1014.09
2023-07-10T08:52:42.288Z,1014.09
2023-07-10T08:53:42.370Z,1014.05
2023-07-10T08:54:42.314Z,1014.04
2023-07-10T08:55:42.293Z,1014.08
2023-07-10T08:56:42.268Z,1014.06
2023-07-10T08:57:42.773Z,1014.03
2023-07-10T08:58:42.249Z,1014.00
2023-07-10T08:59:42.237Z,1013.98
2023-07-10T09:00:42.228Z,1013.95
2023-07-10T09:01:42.246Z,1013.96
2023-07-10T09:02:42.242Z,1013.96
2023-07-10T09:03:42.194Z,1013.96
2023-07-10T09:04:42.216Z,1013.97
2023-07-10T09:05:42.186Z,1013.94
2023-07-10T09:06:42.174Z,1013.97
2023-07-10T09:07:42.138Z,1013.99
2023-07-10T09:08:42.140Z,1014.00
2023-07-10T09:09:42.131Z,1013.97
2023-07-10T09:10:42.174Z,1013.97
2023-07-10T09:11:42.139Z,1013.98
2023-07-10T09:12:42.106Z,1013.95
2023-07-10T09:13:42.082Z,1013.97
2023-07-10T09:14:42.086Z,1013.97
2023-07-10T09:15:42.038Z,1013.96
2023-07-10T09:16:42.163Z,1013.94
2023-07-10T09:17:42.054Z,1013.93
2023-07-10T09:18:42.140Z,1013.93
2023-07-10T09:19:42.023Z,1013.92
2023-07-10T09:20:42.065Z,1013.93
2023-07-10T09:21:41.979Z,1013.93
2023-07-10T09:22:41.993Z,1013.90
2023-07-10T09:23:42.008Z,1013.90
2023-07-10T09:24:41.991Z,1013.88
2023-07-10T09:25:41.949Z,1013.84
2023-07-10T09:26:41.950Z,1013.86
2023-07-10T09:27:41.932Z,1013.86
2023-07-10T09:28:41.935Z,1013.87
2023-07-10T09:29:41.920Z,1013.89
2023-07-10T09:30:41.896Z,1013.88
2023-07-10T09:31:41.991Z,1013.88
2023-07-10T09:32:41.910Z,1013.89
2023-07-10T09:33:41.861Z,1013.87
2023-07-10T09:34:41.865Z,1013.88
2023-07-10T09:35:41.850Z,1013.88
2023-07-10T09:36:41.830Z,1013.86
2023-07-10T09:37:41.810Z,1013.87
2023-07-10T09:38:41.808Z,1013.87
2023-07-10T09:39:41.784Z,1013.87
2023-07-10T09:40:41.802Z,1013.87
2023-07-10T09:41:41.789Z,1013.88
2023-07-10T09:42:41.800Z,1013.90
2023-07-10T09:43:41.751Z,1013.92
2023-07-10T09:44:41.851Z,1013.98
2023-07-10T09:45:41.709Z,1013.98
2023-07-10T09:46:41.803Z,1013.96
2023-07-10T09:47:41.769Z,1013.93
2023-07-10T09:48:41.759Z,1013.85
2023-07-10T09:49:41.685Z,1013.86
2023-07-10T09:50:41.687Z,1013.83
2023-07-10T09:51:41.650Z,1013.86
2023-07-10T09:52:41.661Z,1013.90
2023-07-10T09:53:41.652Z,1013.90
2023-07-10T09:54:41.663Z,1013.89
2023-07-10T09:55:41.638Z,1013.91
2023-07-10T09:56:41.639Z,1013.90
2023-07-10T09:57:41.585Z,1013.89
2023-07-10T09:58:41.595Z,1013.89
2023-07-10T09:59:41.586Z,1013.89
2023-07-10T10:00:41.594Z,1013.90
2023-07-10T10:01:41.591Z,1013.90
2023-07-10T10:02:41.642Z,1013.91
2023-07-10T10:03:41.534Z,1013.91
2023-07-10T10:04:41.536Z,1013.93
2023-07-10T10:05:41.520Z,1013.94
2023-07-10T10:06:41.535Z,1013.91
2023-07-10T10:07:41.520Z,1013.87
2023-07-10T10:08:41.488Z,1013.88
2023-07-10T10:09:41.477Z,1013.87
2023-07-10T10:10:41.464Z,1013.86
2023-07-10T10:11:41.466Z,1013.88
2023-07-10T10:12:41.443Z,1013.86
2023-07-10T10:13:41.451Z,1013.88
2023-07-10T10:14:41.429Z,1013.90
2023-07-10T10:15:41.389Z,1013.90
2023-07-10T10:16:41.416Z,1013.93
2023-07-10T10:17:41.557Z,1013.92
2023-07-10T10:18:41.551Z,1013.93
2023-07-10T10:19:41.365Z,1013.94
2023-07-10T10:20:41.375Z,1013.99
2023-07-10T10:21:41.380Z,1013.98
2023-07-10T10:22:41.342Z,1014.01
2023-07-10T10:23:41.335Z,1014.02
2023-07-10T10:24:41.322Z,1014.03
2023-07-10T10:25:41.316Z,1014.05
2023-07-10T10:26:41.311Z,1014.06
2023-07-10T10:27:41.269Z,1014.03
2023-07-10T10:28:41.276Z,1014.01
2023-07-10T10:29:41.271Z,1014.01
2023-07-10T10:30:41.246Z,1013.98
2023-07-10T10:31:41.342Z,1013.98
2023-07-10T10:32:41.260Z,1013.96
2023-07-10T10:33:41.224Z,1013.97
2023-07-10T10:34:41.230Z,1013.95
2023-07-10T10:35:41.215Z,1014.00
2023-07-10T10:36:41.185Z,1014.00
2023-07-10T10:37:41.162Z,1014.01
2023-07-10T10:38:41.163Z,1013.99
2023-07-10T10:39:41.150Z,1014.01
2023-07-10T10:40:41.158Z,1014.02
2023-07-10T10:41:41.127Z,1014.03
2023-07-10T10:42:41.144Z,1013.99
2023-07-10T10:43:41.086Z,1014.02
2023-07-10T10:44:41.159Z,1013.95
2023-07-10T10:45:41.101Z,1013.92
2023-07-10T10:46:41.130Z,1013.96
2023-07-10T10:47:41.160Z,1013.99
2023-07-10T10:48:41.153Z,1014.00
2023-07-10T10:49:41.033Z,1014.02
2023-07-10T10:50:41.049Z,1014.01
2023-07-10T10:51:41.006Z,1013.99
2023-07-10T10:52:41.054Z,1013.94
2023-07-10T10:53:41.025Z,1013.97
2023-07-10T10:54:41.032Z,1013.95
2023-07-10T10:55:40.968Z,1014.00
2023-07-10T10:56:40.990Z,1014.01
2023-07-10T10:57:40.963Z,1014.00
2023-07-10T10:58:40.991Z,1013.97
2023-07-10T10:59:40.962Z,1013.99
2023-07-10T11:00:40.957Z,1014.00
2023-07-10T11:01:40.955Z,1014.03
2023-07-10T11:02:40.981Z,1013.99
2023-07-10T11:03:40.943Z,1014.02
2023-07-10T11:04:40.887Z,1014.01
2023-07-10T11:05:40.899Z,1013.98
2023-07-10T11:06:40.881Z,1014.02
2023-07-10T11:07:40.836Z,1014.00
2023-07-10T11:08:40.843Z,1014.02
2023-07-10T11:09:40.849Z,1014.00
2023-07-10T11:10:40.821Z,1013.98
2023-07-10T11:11:40.827Z,1014.02
2023-07-10T11:12:41.091Z,1014.04
2023-07-10T11:13:40.813Z,1014.01
2023-07-10T11:14:40.794Z,1014.02
2023-07-10T11:15:40.786Z,1013.99
2023-07-10T11:16:40.804Z,1013.98
2023-07-10T11:17:40.812Z,1013.97
2023-07-10T11:18:40.737Z,1013.95
2023-07-10T11:19:41.374Z,1013.98
2023-07-10T11:20:40.722Z,1013.96
2023-07-10T11:21:40.724Z,1013.91
2023-07-10T11:22:40.705Z,1013.91
2023-07-10T11:23:40.701Z,1013.88
2023-07-10T11:24:40.680Z,1013.86
2023-07-10T11:25:40.662Z,1013.81
2023-07-10T11:26:40.679Z,1013.84
2023-07-10T11:27:40.627Z,1013.84
2023-07-10T11:28:41.232Z,1013.83
2023-07-10T11:29:40.646Z,1013.83
2023-07-10T11:30:40.644Z,1013.80
2023-07-10T11:31:40.697Z,1013.80
2023-07-10T11:32:40.672Z,1013.81
2023-07-10T11:33:40.579Z,1013.79
2023-07-10T11:34:40.608Z,1013.78
2023-07-10T11:35:40.583Z,1013.76
2023-07-10T11:36:40.568Z,1013.74
2023-07-10T11:37:40.511Z,1013.75
2023-07-10T11:38:40.574Z,1013.72
2023-07-10T11:39:40.537Z,1013.75
2023-07-10T11:40:40.507Z,1013.77
2023-07-10T11:41:40.509Z,1013.77
2023-07-10T11:42:40.490Z,1013.80
2023-07-10T11:43:40.451Z,1013.78
2023-07-10T11:44:40.477Z,1013.78
2023-07-10T11:45:40.456Z,1013.77
2023-07-10T11:46:40.468Z,1013.77
2023-07-10T11:47:40.483Z,1013.71
2023-07-10T11:48:40.453Z,1013.70
2023-07-10T11:49:40.397Z,1013.72
2023-07-10T11:50:40.421Z,1013.73
2023-07-10T11:51:40.397Z,1013.73
2023-07-10T11:52:40.386Z,1013.72
2023-07-10T11:53:40.384Z,1013.72
2023-07-10T11:54:40.392Z,1013.74
2023-07-10T11:55:40.335Z,1013.73
2023-07-10T11:56:40.354Z,1013.82
2023-07-10T11:57:40.352Z,1013.78
2023-07-10T11:58:40.319Z,1013.81
2023-07-10T11:59:40.329Z,1013.79
2023-07-10T12:00:40.345Z,1013.84
2023-07-10T12:01:40.281Z,1013.83
2023-07-10T12:02:40.404Z,1013.85
2023-07-10T12:03:40.266Z,1013.85
2023-07-10T12:04:40.292Z,1013.84
2023-07-10T12:05:40.263Z,1013.87